Shadehill, South Dakota
Current Conditions -  °F | °C
As of 2:53 PM on Monday 24 Nov 2014 (Local Time) from KHEI Reporting Station
Broken Clouds Broken Clouds  
Wind Chill: 11°   Ceiling: 11000
Heat Index: 25°   Visibility: 10mi
Dew Point: 18°   Wind: 18mph
Humidity: 75%   Direction: 300°WNW
Pressure: 29.98"   Gusts: NA
Location:  45.77°N, 102.18°W
Report Text: KHEI 242153Z AUTO 30016KT 10SM SCT050 SCT070 BKN110 M04/M08 A2998 RMK AO2 SLP191 T10391078
Loading
Personal Weather Stations






























Interactive Weather Map New forecast layout! Learn more

10-Day Weather Forecast

Advertisements
Track Severe Weather on mobile